sensor_id;sensor_type;location;lat;lon;timestamp;temperature;humidity
51595;DHT22;37677;53.254;6.594;2022-11-04T00:01:36;11.90;22.80
51595;DHT22;37677;53.254;6.594;2022-11-04T00:04:02;11.70;23.60
51595;DHT22;37677;53.254;6.594;2022-11-04T00:06:27;11.90;23.70
51595;DHT22;37677;53.254;6.594;2022-11-04T00:08:55;11.70;23.10
51595;DHT22;37677;53.254;6.594;2022-11-04T00:11:21;11.70;24.80
51595;DHT22;37677;53.254;6.594;2022-11-04T00:14:07;11.70;23.80
51595;DHT22;37677;53.254;6.594;2022-11-04T00:16:33;11.80;24.60
51595;DHT22;37677;53.254;6.594;2022-11-04T00:19:18;11.80;26.30
51595;DHT22;37677;53.254;6.594;2022-11-04T00:21:44;11.70;25.30
51595;DHT22;37677;53.254;6.594;2022-11-04T00:24:28;11.90;24.80
51595;DHT22;37677;53.254;6.594;2022-11-04T00:27:13;11.80;25.20
51595;DHT22;37677;53.254;6.594;2022-11-04T00:29:58;11.70;25.60
51595;DHT22;37677;53.254;6.594;2022-11-04T00:32:24;12.70;26.90
51595;DHT22;37677;53.254;6.594;2022-11-04T00:35:09;11.90;28.20
51595;DHT22;37677;53.254;6.594;2022-11-04T00:37:39;11.70;28.00
51595;DHT22;37677;53.254;6.594;2022-11-04T00:40:05;11.90;28.40
51595;DHT22;37677;53.254;6.594;2022-11-04T00:42:32;11.70;29.80
51595;DHT22;37677;53.254;6.594;2022-11-04T00:44:58;11.60;32.10
51595;DHT22;37677;53.254;6.594;2022-11-04T00:47:23;11.60;33.20
51595;DHT22;37677;53.254;6.594;2022-11-04T00:49:49;11.60;32.60
51595;DHT22;37677;53.254;6.594;2022-11-04T00:52:15;11.50;32.30
51595;DHT22;37677;53.254;6.594;2022-11-04T00:54:40;11.50;31.80
51595;DHT22;37677;53.254;6.594;2022-11-04T00:57:10;11.60;29.90
51595;DHT22;37677;53.254;6.594;2022-11-04T00:59:36;11.50;28.90
51595;DHT22;37677;53.254;6.594;2022-11-04T01:02:02;11.50;29.70
51595;DHT22;37677;53.254;6.594;2022-11-04T01:04:28;11.50;30.00
51595;DHT22;37677;53.254;6.594;2022-11-04T01:06:54;11.10;31.40
51595;DHT22;37677;53.254;6.594;2022-11-04T01:09:20;11.30;34.10
51595;DHT22;37677;53.254;6.594;2022-11-04T01:11:46;11.10;33.30
51595;DHT22;37677;53.254;6.594;2022-11-04T01:14:12;11.20;35.20
51595;DHT22;37677;53.254;6.594;2022-11-04T01:16:38;11.00;35.20
51595;DHT22;37677;53.254;6.594;2022-11-04T01:19:05;11.10;37.50
51595;DHT22;37677;53.254;6.594;2022-11-04T01:21:30;10.80;36.80
51595;DHT22;37677;53.254;6.594;2022-11-04T01:23:56;11.00;36.40
51595;DHT22;37677;53.254;6.594;2022-11-04T01:26:24;11.00;36.60
51595;DHT22;37677;53.254;6.594;2022-11-04T01:28:52;10.70;36.90
51595;DHT22;37677;53.254;6.594;2022-11-04T01:31:21;10.90;36.00
51595;DHT22;37677;53.254;6.594;2022-11-04T01:33:49;11.00;36.50
51595;DHT22;37677;53.254;6.594;2022-11-04T01:36:15;11.20;36.50
51595;DHT22;37677;53.254;6.594;2022-11-04T01:38:41;10.80;36.00
51595;DHT22;37677;53.254;6.594;2022-11-04T01:41:10;10.90;36.90
51595;DHT22;37677;53.254;6.594;2022-11-04T01:43:55;11.00;36.30
51595;DHT22;37677;53.254;6.594;2022-11-04T01:46:43;10.70;34.90
51595;DHT22;37677;53.254;6.594;2022-11-04T01:52:01;10.70;37.10
51595;DHT22;37677;53.254;6.594;2022-11-04T01:54:28;10.90;39.30
51595;DHT22;37677;53.254;6.594;2022-11-04T01:56:55;11.00;39.40
51595;DHT22;37677;53.254;6.594;2022-11-04T01:59:25;11.00;41.20
51595;DHT22;37677;53.254;6.594;2022-11-04T02:01:52;10.90;42.00
51595;DHT22;37677;53.254;6.594;2022-11-04T02:04:19;10.90;42.40
51595;DHT22;37677;53.254;6.594;2022-11-04T02:06:55;10.80;42.10
51595;DHT22;37677;53.254;6.594;2022-11-04T02:09:24;10.80;43.20
51595;DHT22;37677;53.254;6.594;2022-11-04T02:11:51;11.00;42.00
51595;DHT22;37677;53.254;6.594;2022-11-04T02:14:36;11.10;41.70
51595;DHT22;37677;53.254;6.594;2022-11-04T02:17:19;10.70;43.90
51595;DHT22;37677;53.254;6.594;2022-11-04T02:30:50;10.70;44.20
51595;DHT22;37677;53.254;6.594;2022-11-04T02:36:11;10.80;45.90
51595;DHT22;37677;53.254;6.594;2022-11-04T02:38:52;10.70;43.50
51595;DHT22;37677;53.254;6.594;2022-11-04T02:41:52;11.00;43.60
51595;DHT22;37677;53.254;6.594;2022-11-04T02:44:29;10.80;43.20
51595;DHT22;37677;53.254;6.594;2022-11-04T02:47:04;10.70;43.40
51595;DHT22;37677;53.254;6.594;2022-11-04T02:49:36;10.70;44.30
51595;DHT22;37677;53.254;6.594;2022-11-04T02:52:08;10.90;42.80
51595;DHT22;37677;53.254;6.594;2022-11-04T02:54:47;10.60;41.70
51595;DHT22;37677;53.254;6.594;2022-11-04T02:57:24;10.70;38.20
51595;DHT22;37677;53.254;6.594;2022-11-04T03:00:05;11.00;38.90
51595;DHT22;37677;53.254;6.594;2022-11-04T03:02:43;10.70;36.40
51595;DHT22;37677;53.254;6.594;2022-11-04T03:05:13;10.90;35.70
51595;DHT22;37677;53.254;6.594;2022-11-04T03:07:41;10.50;37.30
51595;DHT22;37677;53.254;6.594;2022-11-04T03:10:15;10.50;37.30
51595;DHT22;37677;53.254;6.594;2022-11-04T03:12:51;10.70;35.10
51595;DHT22;37677;53.254;6.594;2022-11-04T03:15:27;10.70;38.00
51595;DHT22;37677;53.254;6.594;2022-11-04T03:20:37;10.70;35.40
51595;DHT22;37677;53.254;6.594;2022-11-04T03:23:05;11.10;38.30
51595;DHT22;37677;53.254;6.594;2022-11-04T03:25:36;10.50;36.90
51595;DHT22;37677;53.254;6.594;2022-11-04T03:28:14;10.60;37.70
51595;DHT22;37677;53.254;6.594;2022-11-04T03:30:43;10.80;38.00
51595;DHT22;37677;53.254;6.594;2022-11-04T03:33:27;10.80;37.70
51595;DHT22;37677;53.254;6.594;2022-11-04T03:35:55;10.70;36.00
51595;DHT22;37677;53.254;6.594;2022-11-04T03:38:22;10.60;38.70
51595;DHT22;37677;53.254;6.594;2022-11-04T03:40:48;11.00;37.40
51595;DHT22;37677;53.254;6.594;2022-11-04T03:43:19;10.60;37.70
51595;DHT22;37677;53.254;6.594;2022-11-04T03:45:46;10.70;38.00
51595;DHT22;37677;53.254;6.594;2022-11-04T03:48:12;10.80;36.90
51595;DHT22;37677;53.254;6.594;2022-11-04T03:50:43;10.70;38.10
51595;DHT22;37677;53.254;6.594;2022-11-04T03:53:10;10.80;37.60
51595;DHT22;37677;53.254;6.594;2022-11-04T03:55:44;10.70;37.50
51595;DHT22;37677;53.254;6.594;2022-11-04T04:03:57;10.60;39.30
51595;DHT22;37677;53.254;6.594;2022-11-04T04:06:28;10.90;41.40
51595;DHT22;37677;53.254;6.594;2022-11-04T04:09:13;10.60;42.10
51595;DHT22;37677;53.254;6.594;2022-11-04T04:12:04;10.90;40.40
51595;DHT22;37677;53.254;6.594;2022-11-04T04:14:41;10.80;44.10
51595;DHT22;37677;53.254;6.594;2022-11-04T04:17:40;10.70;42.60
51595;DHT22;37677;53.254;6.594;2022-11-04T04:20:19;10.70;45.40
51595;DHT22;37677;53.254;6.594;2022-11-04T04:22:58;10.70;45.00
51595;DHT22;37677;53.254;6.594;2022-11-04T04:25:27;10.50;44.20
51595;DHT22;37677;53.254;6.594;2022-11-04T04:28:13;10.70;45.00
51595;DHT22;37677;53.254;6.594;2022-11-04T04:30:41;10.70;44.40
51595;DHT22;37677;53.254;6.594;2022-11-04T04:33:10;10.30;43.00
51595;DHT22;37677;53.254;6.594;2022-11-04T04:35:48;10.60;41.20
51595;DHT22;37677;53.254;6.594;2022-11-04T04:41:09;10.40;39.30
51595;DHT22;37677;53.254;6.594;2022-11-04T04:43:53;10.40;40.90
51595;DHT22;37677;53.254;6.594;2022-11-04T04:46:38;10.40;39.40
51595;DHT22;37677;53.254;6.594;2022-11-04T04:49:06;10.30;40.50
51595;DHT22;37677;53.254;6.594;2022-11-04T04:51:32;10.40;39.90
51595;DHT22;37677;53.254;6.594;2022-11-04T04:53:59;10.30;39.60
51595;DHT22;37677;53.254;6.594;2022-11-04T04:56:24;10.60;39.50
51595;DHT22;37677;53.254;6.594;2022-11-04T04:58:50;10.40;43.00
51595;DHT22;37677;53.254;6.594;2022-11-04T05:01:16;10.60;44.30
51595;DHT22;37677;53.254;6.594;2022-11-04T05:03:41;10.90;42.90
51595;DHT22;37677;53.254;6.594;2022-11-04T05:06:07;10.70;46.00
51595;DHT22;37677;53.254;6.594;2022-11-04T05:08:33;10.50;45.80
51595;DHT22;37677;53.254;6.594;2022-11-04T05:10:59;10.20;46.60
51595;DHT22;37677;53.254;6.594;2022-11-04T05:13:25;10.60;47.10
51595;DHT22;37677;53.254;6.594;2022-11-04T05:15:51;10.20;48.20
51595;DHT22;37677;53.254;6.594;2022-11-04T05:18:17;10.30;48.30
51595;DHT22;37677;53.254;6.594;2022-11-04T05:20:43;10.50;48.10
51595;DHT22;37677;53.254;6.594;2022-11-04T05:23:09;10.20;48.60
51595;DHT22;37677;53.254;6.594;2022-11-04T05:25:40;10.10;47.90
51595;DHT22;37677;53.254;6.594;2022-11-04T05:28:07;10.00;47.40
51595;DHT22;37677;53.254;6.594;2022-11-04T05:30:34;10.10;49.40
51595;DHT22;37677;53.254;6.594;2022-11-04T05:33:00;10.40;49.70
51595;DHT22;37677;53.254;6.594;2022-11-04T05:35:25;10.10;48.80
51595;DHT22;37677;53.254;6.594;2022-11-04T05:37:51;10.30;49.20
51595;DHT22;37677;53.254;6.594;2022-11-04T05:40:17;10.30;48.70
51595;DHT22;37677;53.254;6.594;2022-11-04T05:42:42;10.20;49.10
51595;DHT22;37677;53.254;6.594;2022-11-04T05:45:08;10.10;49.00
51595;DHT22;37677;53.254;6.594;2022-11-04T05:47:34;10.20;47.70
51595;DHT22;37677;53.254;6.594;2022-11-04T05:50:00;10.10;47.20
51595;DHT22;37677;53.254;6.594;2022-11-04T05:52:25;10.40;47.10
51595;DHT22;37677;53.254;6.594;2022-11-04T05:54:51;10.20;46.50
51595;DHT22;37677;53.254;6.594;2022-11-04T05:57:16;10.00;46.40
51595;DHT22;37677;53.254;6.594;2022-11-04T05:59:42;10.00;47.00
51595;DHT22;37677;53.254;6.594;2022-11-04T06:02:08;10.10;46.20
51595;DHT22;37677;53.254;6.594;2022-11-04T06:04:34;10.10;46.50
51595;DHT22;37677;53.254;6.594;2022-11-04T06:06:59;10.00;48.60
51595;DHT22;37677;53.254;6.594;2022-11-04T06:09:25;10.10;48.40
51595;DHT22;37677;53.254;6.594;2022-11-04T06:12:14;10.10;48.60
51595;DHT22;37677;53.254;6.594;2022-11-04T06:14:41;10.00;48.10
51595;DHT22;37677;53.254;6.594;2022-11-04T06:17:07;10.10;47.70
51595;DHT22;37677;53.254;6.594;2022-11-04T06:19:32;10.20;48.50
51595;DHT22;37677;53.254;6.594;2022-11-04T06:22:01;10.00;48.40
51595;DHT22;37677;53.254;6.594;2022-11-04T06:24:28;9.90;48.40
51595;DHT22;37677;53.254;6.594;2022-11-04T06:26:53;9.90;47.20
51595;DHT22;37677;53.254;6.594;2022-11-04T06:29:19;10.00;48.50
51595;DHT22;37677;53.254;6.594;2022-11-04T06:31:45;10.00;48.10
51595;DHT22;37677;53.254;6.594;2022-11-04T06:34:10;10.90;48.20
51595;DHT22;37677;53.254;6.594;2022-11-04T06:36:36;9.90;47.60
51595;DHT22;37677;53.254;6.594;2022-11-04T06:39:03;10.10;46.10
51595;DHT22;37677;53.254;6.594;2022-11-04T06:41:29;10.00;45.00
51595;DHT22;37677;53.254;6.594;2022-11-04T06:43:55;9.80;44.50
51595;DHT22;37677;53.254;6.594;2022-11-04T06:46:26;9.80;44.00
51595;DHT22;37677;53.254;6.594;2022-11-04T06:48:52;9.80;43.70
51595;DHT22;37677;53.254;6.594;2022-11-04T06:51:19;9.80;43.40
51595;DHT22;37677;53.254;6.594;2022-11-04T06:53:44;9.70;42.80
51595;DHT22;37677;53.254;6.594;2022-11-04T06:56:10;9.80;42.10
51595;DHT22;37677;53.254;6.594;2022-11-04T06:58:36;9.90;42.20
51595;DHT22;37677;53.254;6.594;2022-11-04T07:01:02;9.90;43.10
51595;DHT22;37677;53.254;6.594;2022-11-04T07:03:27;9.80;44.80
51595;DHT22;37677;53.254;6.594;2022-11-04T07:05:54;10.50;45.70
51595;DHT22;37677;53.254;6.594;2022-11-04T07:08:20;10.10;45.10
51595;DHT22;37677;53.254;6.594;2022-11-04T07:10:46;9.80;46.00
51595;DHT22;37677;53.254;6.594;2022-11-04T07:13:12;9.90;45.50
51595;DHT22;37677;53.254;6.594;2022-11-04T07:15:38;10.30;45.20
51595;DHT22;37677;53.254;6.594;2022-11-04T07:18:05;10.00;44.20
51595;DHT22;37677;53.254;6.594;2022-11-04T07:20:32;10.10;43.10
51595;DHT22;37677;53.254;6.594;2022-11-04T07:22:58;10.50;43.10
51595;DHT22;37677;53.254;6.594;2022-11-04T07:25:24;10.00;42.10
51595;DHT22;37677;53.254;6.594;2022-11-04T07:27:50;9.90;41.60
51595;DHT22;37677;53.254;6.594;2022-11-04T07:30:16;10.00;41.10
51595;DHT22;37677;53.254;6.594;2022-11-04T07:32:45;9.90;40.20
51595;DHT22;37677;53.254;6.594;2022-11-04T07:35:13;9.90;40.20
51595;DHT22;37677;53.254;6.594;2022-11-04T07:37:39;9.90;40.10
51595;DHT22;37677;53.254;6.594;2022-11-04T07:40:06;10.10;40.40
51595;DHT22;37677;53.254;6.594;2022-11-04T07:42:32;9.90;39.30
51595;DHT22;37677;53.254;6.594;2022-11-04T07:44:58;10.20;40.10
51595;DHT22;37677;53.254;6.594;2022-11-04T07:47:23;10.10;39.50
51595;DHT22;37677;53.254;6.594;2022-11-04T07:49:49;10.20;39.10
51595;DHT22;37677;53.254;6.594;2022-11-04T07:52:15;10.20;36.20
51595;DHT22;37677;53.254;6.594;2022-11-04T07:54:41;10.10;35.70
51595;DHT22;37677;53.254;6.594;2022-11-04T07:57:06;10.10;34.50
51595;DHT22;37677;53.254;6.594;2022-11-04T07:59:32;10.30;29.00
51595;DHT22;37677;53.254;6.594;2022-11-04T08:01:58;10.40;30.90
51595;DHT22;37677;53.254;6.594;2022-11-04T08:14:09;11.30;27.40
51595;DHT22;37677;53.254;6.594;2022-11-04T08:16:34;12.20;49.00
51595;DHT22;37677;53.254;6.594;2022-11-04T08:19:00;12.40;27.40
51595;DHT22;37677;53.254;6.594;2022-11-04T08:21:30;12.20;1.00
51595;DHT22;37677;53.254;6.594;2022-11-04T08:23:56;12.70;1.00
51595;DHT22;37677;53.254;6.594;2022-11-04T08:26:22;12.60;4.20
51595;DHT22;37677;53.254;6.594;2022-11-04T08:28:49;12.20;1.00
51595;DHT22;37677;53.254;6.594;2022-11-04T08:33:41;12.20;1.00
51595;DHT22;37677;53.254;6.594;2022-11-04T08:36:19;12.20;1.00
51595;DHT22;37677;53.254;6.594;2022-11-04T08:38:45;12.20;1.00
51595;DHT22;37677;53.254;6.594;2022-11-04T08:41:13;12.60;1.00
51595;DHT22;37677;53.254;6.594;2022-11-04T08:43:39;12.60;1.00
51595;DHT22;37677;53.254;6.594;2022-11-04T08:46:07;12.80;1.00
51595;DHT22;37677;53.254;6.594;2022-11-04T08:48:34;12.90;1.00
51595;DHT22;37677;53.254;6.594;2022-11-04T08:58:21;15.00;27.70
51595;DHT22;37677;53.254;6.594;2022-11-04T09:00:48;16.50;96.50
51595;DHT22;37677;53.254;6.594;2022-11-04T09:03:14;16.40;1.00
51595;DHT22;37677;53.254;6.594;2022-11-04T09:05:41;16.60;1.00
51595;DHT22;37677;53.254;6.594;2022-11-04T09:08:15;17.20;99.90
51595;DHT22;37677;53.254;6.594;2022-11-04T09:10:43;17.70;1.00
51595;DHT22;37677;53.254;6.594;2022-11-04T09:13:10;17.80;1.00
51595;DHT22;37677;53.254;6.594;2022-11-04T09:15:37;17.90;1.00
51595;DHT22;37677;53.254;6.594;2022-11-04T09:18:03;18.00;99.90
51595;DHT22;37677;53.254;6.594;2022-11-04T09:20:29;18.20;99.90
51595;DHT22;37677;53.254;6.594;2022-11-04T09:22:56;18.40;48.90
51595;DHT22;37677;53.254;6.594;2022-11-04T09:25:21;18.30;1.00
51595;DHT22;37677;53.254;6.594;2022-11-04T09:27:47;18.10;99.90
51595;DHT22;37677;53.254;6.594;2022-11-04T09:30:13;18.60;58.20
51595;DHT22;37677;53.254;6.594;2022-11-04T09:32:39;18.70;65.60
51595;DHT22;37677;53.254;6.594;2022-11-04T09:35:05;18.70;1.00
51595;DHT22;37677;53.254;6.594;2022-11-04T09:37:30;18.80;99.90
51595;DHT22;37677;53.254;6.594;2022-11-04T09:39:56;18.80;99.90
51595;DHT22;37677;53.254;6.594;2022-11-04T09:45:15;18.50;1.00
51595;DHT22;37677;53.254;6.594;2022-11-04T09:47:46;19.00;99.90
51595;DHT22;37677;53.254;6.594;2022-11-04T09:50:22;19.00;87.60
51595;DHT22;37677;53.254;6.594;2022-11-04T09:52:54;19.20;99.90
51595;DHT22;37677;53.254;6.594;2022-11-04T09:55:28;18.50;99.90
51595;DHT22;37677;53.254;6.594;2022-11-04T09:57:57;18.30;99.90
51595;DHT22;37677;53.254;6.594;2022-11-04T10:00:24;17.90;99.90
51595;DHT22;37677;53.254;6.594;2022-11-04T10:05:55;18.60;99.90
51595;DHT22;37677;53.254;6.594;2022-11-04T10:08:40;17.90;1.00
51595;DHT22;37677;53.254;6.594;2022-11-04T10:17:06;16.50;1.00
51595;DHT22;37677;53.254;6.594;2022-11-04T10:19:53;16.20;99.90
51595;DHT22;37677;53.254;6.594;2022-11-04T10:22:44;15.70;99.90
51595;DHT22;37677;53.254;6.594;2022-11-04T10:25:20;15.60;99.90
51595;DHT22;37677;53.254;6.594;2022-11-04T10:27:46;15.10;1.00
51595;DHT22;37677;53.254;6.594;2022-11-04T10:37:51;16.50;99.90
51595;DHT22;37677;53.254;6.594;2022-11-04T10:40:26;16.70;99.90
51595;DHT22;37677;53.254;6.594;2022-11-04T10:42:54;16.70;99.90
51595;DHT22;37677;53.254;6.594;2022-11-04T10:45:30;16.70;99.90
51595;DHT22;37677;53.254;6.594;2022-11-04T10:48:12;17.10;1.00
51595;DHT22;37677;53.254;6.594;2022-11-04T10:53:18;16.60;99.90
51595;DHT22;37677;53.254;6.594;2022-11-04T10:58:42;16.20;99.90
51595;DHT22;37677;53.254;6.594;2022-11-04T11:01:32;16.80;99.90
51595;DHT22;37677;53.254;6.594;2022-11-04T11:03:59;16.70;99.90
51595;DHT22;37677;53.254;6.594;2022-11-04T11:06:28;16.50;63.90
51595;DHT22;37677;53.254;6.594;2022-11-04T11:09:11;16.50;99.90
51595;DHT22;37677;53.254;6.594;2022-11-04T11:11:48;16.40;1.00
51595;DHT22;37677;53.254;6.594;2022-11-04T11:16:43;15.80;99.90
51595;DHT22;37677;53.254;6.594;2022-11-04T11:21:55;15.20;99.90
51595;DHT22;37677;53.254;6.594;2022-11-04T11:42:13;13.80;1.00
51595;DHT22;37677;53.254;6.594;2022-11-04T11:44:52;13.40;1.00
51595;DHT22;37677;53.254;6.594;2022-11-04T11:47:34;13.40;99.90
51595;DHT22;37677;53.254;6.594;2022-11-04T11:52:41;12.70;99.90
51595;DHT22;37677;53.254;6.594;2022-11-04T12:00:29;12.30;1.00
51595;DHT22;37677;53.254;6.594;2022-11-04T12:03:02;13.10;1.00
51595;DHT22;37677;53.254;6.594;2022-11-04T12:05:44;12.50;1.00
51595;DHT22;37677;53.254;6.594;2022-11-04T12:11:04;12.10;1.00
51595;DHT22;37677;53.254;6.594;2022-11-04T12:13:38;11.20;1.00
51595;DHT22;37677;53.254;6.594;2022-11-04T12:21:26;12.00;1.00
51595;DHT22;37677;53.254;6.594;2022-11-04T12:27:08;12.20;1.00
51595;DHT22;37677;53.254;6.594;2022-11-04T12:40:37;12.40;1.00
51595;DHT22;37677;53.254;6.594;2022-11-04T12:49:16;12.30;1.00
51595;DHT22;37677;53.254;6.594;2022-11-04T12:57:11;12.20;1.00
51595;DHT22;37677;53.254;6.594;2022-11-04T13:00:08;12.20;1.00
51595;DHT22;37677;53.254;6.594;2022-11-04T13:02:48;12.40;1.00
51595;DHT22;37677;53.254;6.594;2022-11-04T13:13:10;12.80;1.00
51595;DHT22;37677;53.254;6.594;2022-11-04T13:15:48;13.00;1.00
51595;DHT22;37677;53.254;6.594;2022-11-04T13:18:17;12.80;1.00
51595;DHT22;37677;53.254;6.594;2022-11-04T13:21:02;12.90;1.00
51595;DHT22;37677;53.254;6.594;2022-11-04T13:26:04;13.10;1.00
51595;DHT22;37677;53.254;6.594;2022-11-04T13:28:30;13.00;1.00
51595;DHT22;37677;53.254;6.594;2022-11-04T13:31:49;13.40;1.00
51595;DHT22;37677;53.254;6.594;2022-11-04T13:34:27;13.00;1.00
51595;DHT22;37677;53.254;6.594;2022-11-04T13:37:32;13.10;1.00
51595;DHT22;37677;53.254;6.594;2022-11-04T13:40:05;13.50;1.00
51595;DHT22;37677;53.254;6.594;2022-11-04T13:42:53;13.10;1.00
51595;DHT22;37677;53.254;6.594;2022-11-04T13:45:50;13.00;1.00
51595;DHT22;37677;53.254;6.594;2022-11-04T13:48:19;13.10;1.00
51595;DHT22;37677;53.254;6.594;2022-11-04T13:53:45;12.90;1.00
51595;DHT22;37677;53.254;6.594;2022-11-04T13:56:37;13.00;1.00
51595;DHT22;37677;53.254;6.594;2022-11-04T13:59:27;12.60;1.00
51595;DHT22;37677;53.254;6.594;2022-11-04T14:04:43;12.90;1.00
51595;DHT22;37677;53.254;6.594;2022-11-04T14:07:14;12.90;1.00
51595;DHT22;37677;53.254;6.594;2022-11-04T14:14:45;12.60;1.00
51595;DHT22;37677;53.254;6.594;2022-11-04T14:22:55;12.10;1.00
51595;DHT22;37677;53.254;6.594;2022-11-04T14:25:30;12.40;1.00
51595;DHT22;37677;53.254;6.594;2022-11-04T14:28:18;11.80;1.00
51595;DHT22;37677;53.254;6.594;2022-11-04T14:41:51;11.70;1.00
51595;DHT22;37677;53.254;6.594;2022-11-04T14:44:36;11.70;1.00
51595;DHT22;37677;53.254;6.594;2022-11-04T14:47:23;11.70;1.00
51595;DHT22;37677;53.254;6.594;2022-11-04T14:57:40;11.80;1.00
51595;DHT22;37677;53.254;6.594;2022-11-04T15:05:28;11.50;1.00
51595;DHT22;37677;53.254;6.594;2022-11-04T15:07:55;11.50;1.00
51595;DHT22;37677;53.254;6.594;2022-11-04T15:10:26;11.40;1.00
51595;DHT22;37677;53.254;6.594;2022-11-04T15:12:58;11.40;1.00
51595;DHT22;37677;53.254;6.594;2022-11-04T15:15:30;12.00;1.00
51595;DHT22;37677;53.254;6.594;2022-11-04T15:20:24;12.40;1.00
51595;DHT22;37677;53.254;6.594;2022-11-04T15:22:54;11.10;1.00
51595;DHT22;37677;53.254;6.594;2022-11-04T15:25:20;11.90;1.00
51595;DHT22;37677;53.254;6.594;2022-11-04T15:27:46;11.00;1.00
51595;DHT22;37677;53.254;6.594;2022-11-04T15:30:23;10.80;1.00
51595;DHT22;37677;53.254;6.594;2022-11-04T15:35:29;10.80;1.00
51595;DHT22;37677;53.254;6.594;2022-11-04T15:40:25;10.70;1.00
51595;DHT22;37677;53.254;6.594;2022-11-04T15:42:52;10.80;1.00
51595;DHT22;37677;53.254;6.594;2022-11-04T15:45:26;10.60;1.00
51595;DHT22;37677;53.254;6.594;2022-11-04T15:50:47;10.50;1.00
51595;DHT22;37677;53.254;6.594;2022-11-04T15:53:15;10.50;1.00
51595;DHT22;37677;53.254;6.594;2022-11-04T15:55:41;10.40;1.00
51595;DHT22;37677;53.254;6.594;2022-11-04T15:58:11;10.30;1.00
51595;DHT22;37677;53.254;6.594;2022-11-04T16:00:38;10.60;1.00
51595;DHT22;37677;53.254;6.594;2022-11-04T16:03:04;11.80;1.00
51595;DHT22;37677;53.254;6.594;2022-11-04T16:05:34;10.30;1.00
51595;DHT22;37677;53.254;6.594;2022-11-04T16:08:18;10.20;1.00
51595;DHT22;37677;53.254;6.594;2022-11-04T16:10:44;10.20;1.00
51595;DHT22;37677;53.254;6.594;2022-11-04T16:18:21;10.10;1.00
51595;DHT22;37677;53.254;6.594;2022-11-04T16:20:48;10.50;1.00
51595;DHT22;37677;53.254;6.594;2022-11-04T16:23:19;10.30;1.00
51595;DHT22;37677;53.254;6.594;2022-11-04T16:25:46;10.00;1.00
51595;DHT22;37677;53.254;6.594;2022-11-04T16:28:19;10.10;1.00
51595;DHT22;37677;53.254;6.594;2022-11-04T16:30:59;10.30;1.00
51595;DHT22;37677;53.254;6.594;2022-11-04T16:33:25;10.50;1.00
51595;DHT22;37677;53.254;6.594;2022-11-04T16:35:50;10.30;1.00
51595;DHT22;37677;53.254;6.594;2022-11-04T16:38:16;10.30;1.00
51595;DHT22;37677;53.254;6.594;2022-11-04T16:40:44;9.90;1.00
51595;DHT22;37677;53.254;6.594;2022-11-04T16:43:12;9.80;1.00
51595;DHT22;37677;53.254;6.594;2022-11-04T16:45:38;10.00;1.00
51595;DHT22;37677;53.254;6.594;2022-11-04T16:48:05;9.90;1.00
51595;DHT22;37677;53.254;6.594;2022-11-04T16:50:31;10.10;1.00
51595;DHT22;37677;53.254;6.594;2022-11-04T16:52:57;9.70;1.00
51595;DHT22;37677;53.254;6.594;2022-11-04T16:55:24;10.20;1.00
51595;DHT22;37677;53.254;6.594;2022-11-04T16:57:57;9.40;1.00
51595;DHT22;37677;53.254;6.594;2022-11-04T17:00:25;9.60;1.00
51595;DHT22;37677;53.254;6.594;2022-11-04T17:02:51;9.80;1.00
51595;DHT22;37677;53.254;6.594;2022-11-04T17:05:17;9.50;1.00
51595;DHT22;37677;53.254;6.594;2022-11-04T17:07:44;9.80;1.00
51595;DHT22;37677;53.254;6.594;2022-11-04T17:10:27;9.40;1.00
51595;DHT22;37677;53.254;6.594;2022-11-04T17:12:53;9.30;1.00
51595;DHT22;37677;53.254;6.594;2022-11-04T17:15:18;8.50;1.00
51595;DHT22;37677;53.254;6.594;2022-11-04T17:17:47;9.40;4.80
51595;DHT22;37677;53.254;6.594;2022-11-04T17:20:15;9.30;5.10
51595;DHT22;37677;53.254;6.594;2022-11-04T17:22:42;9.60;8.40
51595;DHT22;37677;53.254;6.594;2022-11-04T17:25:15;10.00;2.10
51595;DHT22;37677;53.254;6.594;2022-11-04T17:27:41;9.20;1.00
51595;DHT22;37677;53.254;6.594;2022-11-04T17:30:08;9.50;4.30
51595;DHT22;37677;53.254;6.594;2022-11-04T17:32:33;9.30;5.10
51595;DHT22;37677;53.254;6.594;2022-11-04T17:34:59;9.60;7.30
51595;DHT22;37677;53.254;6.594;2022-11-04T17:37:25;9.50;6.60
51595;DHT22;37677;53.254;6.594;2022-11-04T17:39:50;9.40;7.50
51595;DHT22;37677;53.254;6.594;2022-11-04T17:42:16;10.30;8.40
51595;DHT22;37677;53.254;6.594;2022-11-04T17:45:00;9.50;3.00
51595;DHT22;37677;53.254;6.594;2022-11-04T17:47:26;9.30;4.60
51595;DHT22;37677;53.254;6.594;2022-11-04T17:49:51;9.80;6.20
51595;DHT22;37677;53.254;6.594;2022-11-04T17:52:17;10.00;8.20
51595;DHT22;37677;53.254;6.594;2022-11-04T17:54:43;9.20;3.80
51595;DHT22;37677;53.254;6.594;2022-11-04T17:57:08;9.40;9.00
51595;DHT22;37677;53.254;6.594;2022-11-04T17:59:34;9.00;7.70
51595;DHT22;37677;53.254;6.594;2022-11-04T18:02:00;9.20;4.60
51595;DHT22;37677;53.254;6.594;2022-11-04T18:04:25;9.10;7.00
51595;DHT22;37677;53.254;6.594;2022-11-04T18:06:51;9.30;6.40
51595;DHT22;37677;53.254;6.594;2022-11-04T18:09:18;9.20;4.50
51595;DHT22;37677;53.254;6.594;2022-11-04T18:11:44;10.40;5.20
51595;DHT22;37677;53.254;6.594;2022-11-04T18:14:29;9.20;1.00
51595;DHT22;37677;53.254;6.594;2022-11-04T18:16:55;9.60;1.00
51595;DHT22;37677;53.254;6.594;2022-11-04T18:19:22;9.70;1.00
51595;DHT22;37677;53.254;6.594;2022-11-04T18:21:48;9.40;1.10
51595;DHT22;37677;53.254;6.594;2022-11-04T18:24:14;9.30;1.60
51595;DHT22;37677;53.254;6.594;2022-11-04T18:26:40;10.40;3.30
51595;DHT22;37677;53.254;6.594;2022-11-04T18:29:06;10.00;1.20
51595;DHT22;37677;53.254;6.594;2022-11-04T18:31:35;9.40;2.40
51595;DHT22;37677;53.254;6.594;2022-11-04T18:34:04;8.60;9.30
51595;DHT22;37677;53.254;6.594;2022-11-04T18:36:31;9.60;8.20
51595;DHT22;37677;53.254;6.594;2022-11-04T18:38:59;9.90;1.00
51595;DHT22;37677;53.254;6.594;2022-11-04T18:41:25;9.10;1.00
51595;DHT22;37677;53.254;6.594;2022-11-04T18:43:51;9.10;1.00
51595;DHT22;37677;53.254;6.594;2022-11-04T18:46:18;9.10;1.00
51595;DHT22;37677;53.254;6.594;2022-11-04T18:48:48;9.00;1.00
51595;DHT22;37677;53.254;6.594;2022-11-04T18:51:20;9.30;1.00
51595;DHT22;37677;53.254;6.594;2022-11-04T18:56:14;8.90;1.00
51595;DHT22;37677;53.254;6.594;2022-11-04T18:58:41;9.00;2.10
51595;DHT22;37677;53.254;6.594;2022-11-04T19:01:09;9.10;6.80
51595;DHT22;37677;53.254;6.594;2022-11-04T19:03:36;9.00;2.20
51595;DHT22;37677;53.254;6.594;2022-11-04T19:06:10;9.10;2.30
51595;DHT22;37677;53.254;6.594;2022-11-04T19:08:36;8.80;8.60
51595;DHT22;37677;53.254;6.594;2022-11-04T19:11:11;9.30;2.20
51595;DHT22;37677;53.254;6.594;2022-11-04T19:13:37;8.70;1.00
51595;DHT22;37677;53.254;6.594;2022-11-04T19:16:09;9.30;1.00
51595;DHT22;37677;53.254;6.594;2022-11-04T19:18:35;8.80;1.30
51595;DHT22;37677;53.254;6.594;2022-11-04T19:21:10;8.70;1.40
51595;DHT22;37677;53.254;6.594;2022-11-04T19:23:37;9.00;9.20
51595;DHT22;37677;53.254;6.594;2022-11-04T19:26:10;9.00;6.90